sensor_id;sensor_type;location;lat;lon;timestamp;P1;durP1;ratioP1;P2;durP2;ratioP2
10811;SDS011;5458;51.496;7.334;2022-08-19T00:01:09;7.30;;;6.22;;
10811;SDS011;5458;51.496;7.334;2022-08-19T00:03:35;6.65;;;5.82;;
10811;SDS011;5458;51.496;7.334;2022-08-19T00:06:00;8.07;;;7.28;;
10811;SDS011;5458;51.496;7.334;2022-08-19T00:08:26;7.57;;;6.75;;
10811;SDS011;5458;51.496;7.334;2022-08-19T00:10:52;7.93;;;7.07;;
10811;SDS011;5458;51.496;7.334;2022-08-19T00:13:17;8.70;;;7.15;;
10811;SDS011;5458;51.496;7.334;2022-08-19T00:15:43;9.02;;;7.70;;
10811;SDS011;5458;51.496;7.334;2022-08-19T00:18:09;7.78;;;6.97;;
10811;SDS011;5458;51.496;7.334;2022-08-19T00:20:35;8.02;;;7.22;;
10811;SDS011;5458;51.496;7.334;2022-08-19T00:23:03;9.52;;;6.95;;
10811;SDS011;5458;51.496;7.334;2022-08-19T00:25:28;8.85;;;7.60;;
10811;SDS011;5458;51.496;7.334;2022-08-19T00:27:54;8.55;;;7.75;;
10811;SDS011;5458;51.496;7.334;2022-08-19T00:30:20;10.23;;;8.80;;
10811;SDS011;5458;51.496;7.334;2022-08-19T00:32:46;9.32;;;7.93;;
10811;SDS011;5458;51.496;7.334;2022-08-19T00:35:12;9.27;;;8.07;;
10811;SDS011;5458;51.496;7.334;2022-08-19T00:37:38;10.93;;;8.63;;
10811;SDS011;5458;51.496;7.334;2022-08-19T00:40:08;8.52;;;7.60;;
10811;SDS011;5458;51.496;7.334;2022-08-19T00:42:34;9.38;;;8.48;;
10811;SDS011;5458;51.496;7.334;2022-08-19T00:45:00;11.93;;;8.48;;
10811;SDS011;5458;51.496;7.334;2022-08-19T00:47:26;8.38;;;7.57;;
10811;SDS011;5458;51.496;7.334;2022-08-19T00:49:54;8.82;;;7.97;;
10811;SDS011;5458;51.496;7.334;2022-08-19T00:52:29;8.50;;;7.55;;
10811;SDS011;5458;51.496;7.334;2022-08-19T00:54:58;9.05;;;8.25;;
10811;SDS011;5458;51.496;7.334;2022-08-19T00:57:30;9.13;;;7.72;;
10811;SDS011;5458;51.496;7.334;2022-08-19T01:00:03;9.02;;;8.15;;
10811;SDS011;5458;51.496;7.334;2022-08-19T01:02:31;9.95;;;7.85;;
10811;SDS011;5458;51.496;7.334;2022-08-19T01:04:57;10.23;;;9.07;;
10811;SDS011;5458;51.496;7.334;2022-08-19T01:07:26;10.00;;;9.00;;
10811;SDS011;5458;51.496;7.334;2022-08-19T01:09:52;9.07;;;8.18;;
10811;SDS011;5458;51.496;7.334;2022-08-19T01:12:18;9.75;;;7.38;;
10811;SDS011;5458;51.496;7.334;2022-08-19T01:14:44;8.85;;;7.95;;
10811;SDS011;5458;51.496;7.334;2022-08-19T01:17:10;9.82;;;8.80;;
10811;SDS011;5458;51.496;7.334;2022-08-19T01:19:37;7.47;;;6.78;;
10811;SDS011;5458;51.496;7.334;2022-08-19T01:22:08;8.45;;;7.72;;
10811;SDS011;5458;51.496;7.334;2022-08-19T01:24:39;8.85;;;8.05;;
10811;SDS011;5458;51.496;7.334;2022-08-19T01:27:05;9.63;;;8.63;;
10811;SDS011;5458;51.496;7.334;2022-08-19T01:29:32;10.15;;;9.18;;
10811;SDS011;5458;51.496;7.334;2022-08-19T01:31:58;9.45;;;8.38;;
10811;SDS011;5458;51.496;7.334;2022-08-19T01:34:26;9.68;;;8.45;;
10811;SDS011;5458;51.496;7.334;2022-08-19T01:36:51;9.60;;;8.60;;
10811;SDS011;5458;51.496;7.334;2022-08-19T01:39:21;10.15;;;8.93;;
10811;SDS011;5458;51.496;7.334;2022-08-19T01:41:49;9.75;;;8.75;;
10811;SDS011;5458;51.496;7.334;2022-08-19T01:44:17;9.52;;;8.35;;
10811;SDS011;5458;51.496;7.334;2022-08-19T01:46:45;11.05;;;9.77;;
10811;SDS011;5458;51.496;7.334;2022-08-19T01:49:13;9.85;;;8.45;;
10811;SDS011;5458;51.496;7.334;2022-08-19T01:51:38;10.48;;;9.40;;
10811;SDS011;5458;51.496;7.334;2022-08-19T01:54:04;9.93;;;8.95;;
10811;SDS011;5458;51.496;7.334;2022-08-19T01:56:30;10.60;;;9.07;;
10811;SDS011;5458;51.496;7.334;2022-08-19T01:58:58;11.50;;;8.57;;
10811;SDS011;5458;51.496;7.334;2022-08-19T02:01:27;10.20;;;9.10;;
10811;SDS011;5458;51.496;7.334;2022-08-19T02:03:56;11.63;;;9.82;;
10811;SDS011;5458;51.496;7.334;2022-08-19T02:06:23;11.23;;;9.40;;
10811;SDS011;5458;51.496;7.334;2022-08-19T02:08:48;10.80;;;9.70;;
10811;SDS011;5458;51.496;7.334;2022-08-19T02:11:19;11.90;;;9.85;;
10811;SDS011;5458;51.496;7.334;2022-08-19T02:13:48;10.00;;;8.82;;
10811;SDS011;5458;51.496;7.334;2022-08-19T02:16:15;10.63;;;8.95;;
10811;SDS011;5458;51.496;7.334;2022-08-19T02:18:43;11.07;;;9.98;;
10811;SDS011;5458;51.496;7.334;2022-08-19T02:21:09;10.77;;;9.68;;
10811;SDS011;5458;51.496;7.334;2022-08-19T02:23:35;11.15;;;10.05;;
10811;SDS011;5458;51.496;7.334;2022-08-19T02:26:01;10.65;;;9.65;;
10811;SDS011;5458;51.496;7.334;2022-08-19T02:28:27;10.32;;;9.00;;
10811;SDS011;5458;51.496;7.334;2022-08-19T02:30:53;10.65;;;9.52;;
10811;SDS011;5458;51.496;7.334;2022-08-19T02:33:18;11.43;;;9.07;;
10811;SDS011;5458;51.496;7.334;2022-08-19T02:35:44;10.60;;;9.48;;
10811;SDS011;5458;51.496;7.334;2022-08-19T02:38:11;10.45;;;9.30;;
10811;SDS011;5458;51.496;7.334;2022-08-19T02:40:53;10.20;;;9.20;;
10811;SDS011;5458;51.496;7.334;2022-08-19T02:43:32;11.10;;;10.00;;
10811;SDS011;5458;51.496;7.334;2022-08-19T02:46:02;12.02;;;10.55;;
10811;SDS011;5458;51.496;7.334;2022-08-19T02:48:45;10.60;;;9.50;;
10811;SDS011;5458;51.496;7.334;2022-08-19T02:51:16;11.90;;;10.70;;
10811;SDS011;5458;51.496;7.334;2022-08-19T02:53:44;12.20;;;10.98;;
10811;SDS011;5458;51.496;7.334;2022-08-19T02:56:09;12.63;;;10.23;;
10811;SDS011;5458;51.496;7.334;2022-08-19T02:58:35;12.18;;;10.25;;
10811;SDS011;5458;51.496;7.334;2022-08-19T03:01:00;13.43;;;10.25;;
10811;SDS011;5458;51.496;7.334;2022-08-19T03:03:26;11.65;;;9.80;;
10811;SDS011;5458;51.496;7.334;2022-08-19T03:06:01;10.65;;;9.55;;
10811;SDS011;5458;51.496;7.334;2022-08-19T03:08:31;14.20;;;11.00;;
10811;SDS011;5458;51.496;7.334;2022-08-19T03:10:57;14.00;;;11.40;;
10811;SDS011;5458;51.496;7.334;2022-08-19T03:13:23;12.55;;;11.27;;
10811;SDS011;5458;51.496;7.334;2022-08-19T03:15:48;14.07;;;11.43;;
10811;SDS011;5458;51.496;7.334;2022-08-19T03:18:14;12.95;;;10.95;;
10811;SDS011;5458;51.496;7.334;2022-08-19T03:20:41;14.60;;;11.82;;
10811;SDS011;5458;51.496;7.334;2022-08-19T03:23:09;12.98;;;11.68;;
10811;SDS011;5458;51.496;7.334;2022-08-19T03:25:39;12.45;;;11.15;;
10811;SDS011;5458;51.496;7.334;2022-08-19T03:28:08;13.77;;;11.85;;
10811;SDS011;5458;51.496;7.334;2022-08-19T03:30:35;13.25;;;11.85;;
10811;SDS011;5458;51.496;7.334;2022-08-19T03:33:00;14.52;;;12.35;;
10811;SDS011;5458;51.496;7.334;2022-08-19T03:35:27;16.77;;;12.07;;
10811;SDS011;5458;51.496;7.334;2022-08-19T03:37:52;13.38;;;11.85;;
10811;SDS011;5458;51.496;7.334;2022-08-19T03:40:18;15.35;;;12.82;;
10811;SDS011;5458;51.496;7.334;2022-08-19T03:42:44;15.57;;;12.40;;
10811;SDS011;5458;51.496;7.334;2022-08-19T03:45:11;17.33;;;13.68;;
10811;SDS011;5458;51.496;7.334;2022-08-19T03:47:36;14.35;;;11.52;;
10811;SDS011;5458;51.496;7.334;2022-08-19T03:50:03;16.10;;;12.85;;
10811;SDS011;5458;51.496;7.334;2022-08-19T03:52:29;13.60;;;12.18;;
10811;SDS011;5458;51.496;7.334;2022-08-19T03:54:54;12.13;;;10.93;;
10811;SDS011;5458;51.496;7.334;2022-08-19T03:57:20;14.68;;;11.50;;
10811;SDS011;5458;51.496;7.334;2022-08-19T03:59:46;16.80;;;12.40;;
10811;SDS011;5458;51.496;7.334;2022-08-19T04:02:11;14.05;;;12.10;;
10811;SDS011;5458;51.496;7.334;2022-08-19T04:04:38;14.05;;;12.23;;
10811;SDS011;5458;51.496;7.334;2022-08-19T04:07:06;13.55;;;10.95;;
10811;SDS011;5458;51.496;7.334;2022-08-19T04:09:34;15.63;;;13.02;;
10811;SDS011;5458;51.496;7.334;2022-08-19T04:12:01;14.93;;;12.50;;
10811;SDS011;5458;51.496;7.334;2022-08-19T04:14:30;13.40;;;11.93;;
10811;SDS011;5458;51.496;7.334;2022-08-19T04:16:56;13.55;;;12.15;;
10811;SDS011;5458;51.496;7.334;2022-08-19T04:19:24;15.02;;;13.38;;
10811;SDS011;5458;51.496;7.334;2022-08-19T04:21:50;14.38;;;12.52;;
10811;SDS011;5458;51.496;7.334;2022-08-19T04:24:18;14.40;;;12.63;;
10811;SDS011;5458;51.496;7.334;2022-08-19T04:26:45;17.15;;;14.25;;
10811;SDS011;5458;51.496;7.334;2022-08-19T04:29:16;14.70;;;12.75;;
10811;SDS011;5458;51.496;7.334;2022-08-19T04:31:43;14.60;;;13.07;;
10811;SDS011;5458;51.496;7.334;2022-08-19T04:34:10;15.35;;;13.75;;
10811;SDS011;5458;51.496;7.334;2022-08-19T04:36:39;16.42;;;13.32;;
10811;SDS011;5458;51.496;7.334;2022-08-19T04:39:07;16.80;;;13.13;;
10811;SDS011;5458;51.496;7.334;2022-08-19T04:41:35;14.98;;;12.57;;
10811;SDS011;5458;51.496;7.334;2022-08-19T04:44:19;19.00;;;15.23;;
10811;SDS011;5458;51.496;7.334;2022-08-19T04:46:46;16.73;;;14.75;;
10811;SDS011;5458;51.496;7.334;2022-08-19T04:49:16;18.45;;;15.32;;
10811;SDS011;5458;51.496;7.334;2022-08-19T04:51:44;18.63;;;15.48;;
10811;SDS011;5458;51.496;7.334;2022-08-19T04:54:12;16.90;;;14.70;;
10811;SDS011;5458;51.496;7.334;2022-08-19T04:56:39;17.83;;;14.27;;
10811;SDS011;5458;51.496;7.334;2022-08-19T04:59:05;16.00;;;14.27;;
10811;SDS011;5458;51.496;7.334;2022-08-19T05:01:32;20.27;;;15.43;;
10811;SDS011;5458;51.496;7.334;2022-08-19T05:03:59;19.05;;;15.13;;
10811;SDS011;5458;51.496;7.334;2022-08-19T05:06:26;17.33;;;14.45;;
10811;SDS011;5458;51.496;7.334;2022-08-19T05:08:53;16.77;;;14.68;;
10811;SDS011;5458;51.496;7.334;2022-08-19T05:11:24;17.13;;;14.55;;
10811;SDS011;5458;51.496;7.334;2022-08-19T05:13:51;17.13;;;14.25;;
10811;SDS011;5458;51.496;7.334;2022-08-19T05:16:19;16.40;;;14.48;;
10811;SDS011;5458;51.496;7.334;2022-08-19T05:18:47;18.50;;;15.30;;
10811;SDS011;5458;51.496;7.334;2022-08-19T05:21:32;17.52;;;14.38;;
10811;SDS011;5458;51.496;7.334;2022-08-19T05:24:17;17.77;;;14.13;;
10811;SDS011;5458;51.496;7.334;2022-08-19T05:26:45;25.13;;;14.90;;
10811;SDS011;5458;51.496;7.334;2022-08-19T05:29:16;18.35;;;14.50;;
10811;SDS011;5458;51.496;7.334;2022-08-19T05:31:44;20.33;;;14.27;;
10811;SDS011;5458;51.496;7.334;2022-08-19T05:34:11;17.80;;;14.98;;
10811;SDS011;5458;51.496;7.334;2022-08-19T05:36:38;16.92;;;13.55;;
10811;SDS011;5458;51.496;7.334;2022-08-19T05:39:06;16.95;;;12.98;;
10811;SDS011;5458;51.496;7.334;2022-08-19T05:41:33;16.83;;;13.15;;
10811;SDS011;5458;51.496;7.334;2022-08-19T05:44:03;15.02;;;13.02;;
10811;SDS011;5458;51.496;7.334;2022-08-19T05:46:31;17.55;;;13.95;;
10811;SDS011;5458;51.496;7.334;2022-08-19T05:48:57;13.82;;;11.90;;
10811;SDS011;5458;51.496;7.334;2022-08-19T05:51:23;17.58;;;13.80;;
10811;SDS011;5458;51.496;7.334;2022-08-19T05:53:50;15.35;;;11.80;;
10811;SDS011;5458;51.496;7.334;2022-08-19T05:56:16;13.18;;;11.80;;
10811;SDS011;5458;51.496;7.334;2022-08-19T05:58:43;14.10;;;12.00;;
10811;SDS011;5458;51.496;7.334;2022-08-19T06:01:11;15.05;;;12.65;;
10811;SDS011;5458;51.496;7.334;2022-08-19T06:03:39;14.10;;;12.27;;
10811;SDS011;5458;51.496;7.334;2022-08-19T06:06:06;13.32;;;11.90;;
10811;SDS011;5458;51.496;7.334;2022-08-19T06:08:34;16.90;;;12.55;;
10811;SDS011;5458;51.496;7.334;2022-08-19T06:13:46;14.52;;;12.50;;
10811;SDS011;5458;51.496;7.334;2022-08-19T06:16:15;14.35;;;12.85;;
10811;SDS011;5458;51.496;7.334;2022-08-19T06:18:47;13.93;;;12.00;;
10811;SDS011;5458;51.496;7.334;2022-08-19T06:21:14;16.55;;;12.55;;
10811;SDS011;5458;51.496;7.334;2022-08-19T06:23:39;13.98;;;12.52;;
10811;SDS011;5458;51.496;7.334;2022-08-19T06:26:05;15.18;;;12.82;;
10811;SDS011;5458;51.496;7.334;2022-08-19T06:28:31;18.27;;;12.75;;
10811;SDS011;5458;51.496;7.334;2022-08-19T06:30:58;19.23;;;13.30;;
10811;SDS011;5458;51.496;7.334;2022-08-19T06:33:23;14.23;;;12.13;;
10811;SDS011;5458;51.496;7.334;2022-08-19T06:35:49;18.52;;;12.52;;
10811;SDS011;5458;51.496;7.334;2022-08-19T06:38:15;16.35;;;14.40;;
10811;SDS011;5458;51.496;7.334;2022-08-19T06:40:40;18.92;;;13.88;;
10811;SDS011;5458;51.496;7.334;2022-08-19T06:43:06;17.45;;;13.68;;
10811;SDS011;5458;51.496;7.334;2022-08-19T06:45:32;16.58;;;13.50;;
10811;SDS011;5458;51.496;7.334;2022-08-19T06:47:57;16.00;;;13.35;;
10811;SDS011;5458;51.496;7.334;2022-08-19T06:50:23;16.00;;;13.98;;
10811;SDS011;5458;51.496;7.334;2022-08-19T06:52:49;14.75;;;12.35;;
10811;SDS011;5458;51.496;7.334;2022-08-19T06:55:15;14.50;;;13.15;;
10811;SDS011;5458;51.496;7.334;2022-08-19T06:57:41;15.27;;;11.93;;
10811;SDS011;5458;51.496;7.334;2022-08-19T07:00:08;15.88;;;12.32;;
10811;SDS011;5458;51.496;7.334;2022-08-19T07:02:39;16.50;;;13.38;;
10811;SDS011;5458;51.496;7.334;2022-08-19T07:05:08;13.93;;;12.30;;
10811;SDS011;5458;51.496;7.334;2022-08-19T07:07:34;13.52;;;10.77;;
10811;SDS011;5458;51.496;7.334;2022-08-19T07:10:00;14.32;;;12.25;;
10811;SDS011;5458;51.496;7.334;2022-08-19T07:12:29;16.95;;;11.80;;
10811;SDS011;5458;51.496;7.334;2022-08-19T07:14:58;13.35;;;12.02;;
10811;SDS011;5458;51.496;7.334;2022-08-19T07:17:24;14.95;;;12.85;;
10811;SDS011;5458;51.496;7.334;2022-08-19T07:19:50;12.00;;;10.30;;
10811;SDS011;5458;51.496;7.334;2022-08-19T07:22:16;15.13;;;12.18;;
10811;SDS011;5458;51.496;7.334;2022-08-19T07:24:42;13.70;;;10.43;;
10811;SDS011;5458;51.496;7.334;2022-08-19T07:27:08;14.23;;;11.35;;
10811;SDS011;5458;51.496;7.334;2022-08-19T07:29:35;13.68;;;10.63;;
10811;SDS011;5458;51.496;7.334;2022-08-19T07:32:01;11.73;;;10.43;;
10811;SDS011;5458;51.496;7.334;2022-08-19T07:34:29;10.90;;;9.60;;
10811;SDS011;5458;51.496;7.334;2022-08-19T07:36:55;13.65;;;9.52;;
10811;SDS011;5458;51.496;7.334;2022-08-19T07:39:25;10.88;;;9.50;;
10811;SDS011;5458;51.496;7.334;2022-08-19T07:41:54;10.90;;;9.80;;
10811;SDS011;5458;51.496;7.334;2022-08-19T07:44:21;12.00;;;9.55;;
10811;SDS011;5458;51.496;7.334;2022-08-19T07:46:49;9.48;;;8.10;;
10811;SDS011;5458;51.496;7.334;2022-08-19T07:49:17;12.68;;;9.73;;
10811;SDS011;5458;51.496;7.334;2022-08-19T07:51:54;10.70;;;9.60;;
10811;SDS011;5458;51.496;7.334;2022-08-19T07:54:30;12.38;;;9.20;;
10811;SDS011;5458;51.496;7.334;2022-08-19T07:56:57;9.88;;;8.50;;
10811;SDS011;5458;51.496;7.334;2022-08-19T07:59:23;9.52;;;7.72;;
10811;SDS011;5458;51.496;7.334;2022-08-19T08:01:50;9.98;;;7.70;;
10811;SDS011;5458;51.496;7.334;2022-08-19T08:04:16;8.85;;;7.30;;
10811;SDS011;5458;51.496;7.334;2022-08-19T08:07:02;8.05;;;7.25;;
10811;SDS011;5458;51.496;7.334;2022-08-19T08:09:47;7.60;;;6.80;;
10811;SDS011;5458;51.496;7.334;2022-08-19T08:12:21;6.97;;;5.78;;
10811;SDS011;5458;51.496;7.334;2022-08-19T08:14:51;8.20;;;6.72;;
10811;SDS011;5458;51.496;7.334;2022-08-19T08:17:20;9.25;;;6.90;;
10811;SDS011;5458;51.496;7.334;2022-08-19T08:19:48;7.68;;;6.88;;
10811;SDS011;5458;51.496;7.334;2022-08-19T08:22:16;8.70;;;7.35;;
10811;SDS011;5458;51.496;7.334;2022-08-19T08:25:04;10.02;;;8.93;;
10811;SDS011;5458;51.496;7.334;2022-08-19T08:27:35;9.98;;;8.95;;
10811;SDS011;5458;51.496;7.334;2022-08-19T08:30:04;10.32;;;9.25;;
10811;SDS011;5458;51.496;7.334;2022-08-19T08:32:34;11.85;;;10.68;;
10811;SDS011;5458;51.496;7.334;2022-08-19T08:35:00;11.18;;;10.00;;
10811;SDS011;5458;51.496;7.334;2022-08-19T08:37:26;12.20;;;10.52;;
10811;SDS011;5458;51.496;7.334;2022-08-19T08:39:51;10.65;;;9.55;;
10811;SDS011;5458;51.496;7.334;2022-08-19T08:42:28;10.73;;;9.63;;
10811;SDS011;5458;51.496;7.334;2022-08-19T08:45:10;11.05;;;10.05;;
10811;SDS011;5458;51.496;7.334;2022-08-19T08:47:40;12.27;;;10.98;;
10811;SDS011;5458;51.496;7.334;2022-08-19T08:50:19;11.75;;;10.55;;
10811;SDS011;5458;51.496;7.334;2022-08-19T08:52:50;13.23;;;11.93;;
10811;SDS011;5458;51.496;7.334;2022-08-19T08:55:21;13.30;;;11.63;;
10811;SDS011;5458;51.496;7.334;2022-08-19T09:00:15;12.68;;;11.38;;
10811;SDS011;5458;51.496;7.334;2022-08-19T09:02:44;12.27;;;10.95;;
10811;SDS011;5458;51.496;7.334;2022-08-19T09:05:10;13.25;;;11.82;;
10811;SDS011;5458;51.496;7.334;2022-08-19T09:15:40;12.18;;;8.93;;
10811;SDS011;5458;51.496;7.334;2022-08-19T09:18:15;11.63;;;9.13;;
10811;SDS011;5458;51.496;7.334;2022-08-19T09:20:41;11.32;;;9.60;;
10811;SDS011;5458;51.496;7.334;2022-08-19T09:23:07;8.45;;;7.55;;
10811;SDS011;5458;51.496;7.334;2022-08-19T09:25:34;11.43;;;10.25;;
10811;SDS011;5458;51.496;7.334;2022-08-19T09:28:00;11.73;;;9.60;;
10811;SDS011;5458;51.496;7.334;2022-08-19T09:30:30;14.70;;;13.20;;
10811;SDS011;5458;51.496;7.334;2022-08-19T09:32:57;11.68;;;10.52;;
10811;SDS011;5458;51.496;7.334;2022-08-19T09:35:24;18.27;;;15.40;;
10811;SDS011;5458;51.496;7.334;2022-08-19T09:37:51;21.65;;;19.55;;
10811;SDS011;5458;51.496;7.334;2022-08-19T09:40:18;21.67;;;19.17;;
10811;SDS011;5458;51.496;7.334;2022-08-19T09:42:45;23.67;;;21.27;;
10811;SDS011;5458;51.496;7.334;2022-08-19T09:45:15;24.58;;;21.90;;
10811;SDS011;5458;51.496;7.334;2022-08-19T09:47:42;22.40;;;20.10;;
10811;SDS011;5458;51.496;7.334;2022-08-19T09:50:09;20.17;;;18.17;;
10811;SDS011;5458;51.496;7.334;2022-08-19T09:52:36;25.45;;;21.67;;
10811;SDS011;5458;51.496;7.334;2022-08-19T09:55:05;23.45;;;20.98;;
10811;SDS011;5458;51.496;7.334;2022-08-19T09:57:33;19.38;;;17.48;;
10811;SDS011;5458;51.496;7.334;2022-08-19T09:59:59;15.30;;;13.85;;
10811;SDS011;5458;51.496;7.334;2022-08-19T10:02:24;12.25;;;10.85;;
10811;SDS011;5458;51.496;7.334;2022-08-19T10:04:50;14.20;;;12.80;;
10811;SDS011;5458;51.496;7.334;2022-08-19T10:07:35;11.75;;;10.38;;
10811;SDS011;5458;51.496;7.334;2022-08-19T10:10:03;10.88;;;9.75;;
10811;SDS011;5458;51.496;7.334;2022-08-19T10:12:31;10.23;;;9.07;;
10811;SDS011;5458;51.496;7.334;2022-08-19T10:14:57;11.90;;;10.68;;
10811;SDS011;5458;51.496;7.334;2022-08-19T10:17:23;13.02;;;10.63;;
10811;SDS011;5458;51.496;7.334;2022-08-19T10:19:50;12.90;;;11.70;;
10811;SDS011;5458;51.496;7.334;2022-08-19T10:22:16;12.55;;;11.18;;
10811;SDS011;5458;51.496;7.334;2022-08-19T10:24:43;12.10;;;10.88;;
10811;SDS011;5458;51.496;7.334;2022-08-19T10:27:08;12.98;;;11.65;;
10811;SDS011;5458;51.496;7.334;2022-08-19T10:29:34;15.25;;;11.65;;
10811;SDS011;5458;51.496;7.334;2022-08-19T10:32:01;11.77;;;9.85;;
10811;SDS011;5458;51.496;7.334;2022-08-19T10:34:28;12.68;;;11.15;;
10811;SDS011;5458;51.496;7.334;2022-08-19T10:36:55;10.55;;;9.35;;
10811;SDS011;5458;51.496;7.334;2022-08-19T10:39:21;12.15;;;10.15;;
10811;SDS011;5458;51.496;7.334;2022-08-19T10:41:47;12.02;;;8.63;;
10811;SDS011;5458;51.496;7.334;2022-08-19T10:44:14;9.40;;;8.43;;
10811;SDS011;5458;51.496;7.334;2022-08-19T10:46:42;9.75;;;8.75;;
10811;SDS011;5458;51.496;7.334;2022-08-19T10:49:10;11.45;;;9.38;;
10811;SDS011;5458;51.496;7.334;2022-08-19T10:51:37;9.93;;;8.60;;
10811;SDS011;5458;51.496;7.334;2022-08-19T10:54:22;8.30;;;7.50;;
10811;SDS011;5458;51.496;7.334;2022-08-19T10:56:48;9.70;;;8.77;;
10811;SDS011;5458;51.496;7.334;2022-08-19T10:59:24;10.27;;;9.15;;
10811;SDS011;5458;51.496;7.334;2022-08-19T11:01:52;9.93;;;8.93;;
10811;SDS011;5458;51.496;7.334;2022-08-19T11:04:19;10.00;;;8.95;;
10811;SDS011;5458;51.496;7.334;2022-08-19T11:06:46;9.95;;;8.95;;
10811;SDS011;5458;51.496;7.334;2022-08-19T11:09:14;9.68;;;8.88;;
10811;SDS011;5458;51.496;7.334;2022-08-19T11:11:45;8.75;;;7.85;;
10811;SDS011;5458;51.496;7.334;2022-08-19T11:14:14;7.22;;;6.63;;
10811;SDS011;5458;51.496;7.334;2022-08-19T11:16:41;7.30;;;6.45;;
10811;SDS011;5458;51.496;7.334;2022-08-19T11:19:08;7.40;;;6.35;;
10811;SDS011;5458;51.496;7.334;2022-08-19T11:21:39;9.15;;;8.25;;
10811;SDS011;5458;51.496;7.334;2022-08-19T11:24:08;10.10;;;9.13;;
10811;SDS011;5458;51.496;7.334;2022-08-19T11:26:36;10.10;;;9.18;;
10811;SDS011;5458;51.496;7.334;2022-08-19T11:29:03;9.15;;;8.35;;
10811;SDS011;5458;51.496;7.334;2022-08-19T11:31:31;10.90;;;9.90;;
10811;SDS011;5458;51.496;7.334;2022-08-19T11:34:00;11.98;;;10.82;;
10811;SDS011;5458;51.496;7.334;2022-08-19T11:36:29;15.45;;;11.90;;
10811;SDS011;5458;51.496;7.334;2022-08-19T11:38:56;15.85;;;12.10;;
10811;SDS011;5458;51.496;7.334;2022-08-19T11:41:22;14.30;;;12.85;;
10811;SDS011;5458;51.496;7.334;2022-08-19T11:43:49;14.75;;;13.10;;
10811;SDS011;5458;51.496;7.334;2022-08-19T11:46:16;16.73;;;14.95;;
10811;SDS011;5458;51.496;7.334;2022-08-19T11:48:42;12.80;;;11.68;;
10811;SDS011;5458;51.496;7.334;2022-08-19T11:51:10;14.20;;;12.90;;
10811;SDS011;5458;51.496;7.334;2022-08-19T11:53:38;17.33;;;15.55;;
10811;SDS011;5458;51.496;7.334;2022-08-19T11:56:05;16.10;;;14.48;;
10811;SDS011;5458;51.496;7.334;2022-08-19T11:58:32;18.13;;;15.93;;
10811;SDS011;5458;51.496;7.334;2022-08-19T12:00:59;15.02;;;13.43;;
10811;SDS011;5458;51.496;7.334;2022-08-19T12:03:24;15.70;;;14.18;;
10811;SDS011;5458;51.496;7.334;2022-08-19T12:05:50;13.18;;;11.88;;
10811;SDS011;5458;51.496;7.334;2022-08-19T12:08:16;12.57;;;11.38;;
10811;SDS011;5458;51.496;7.334;2022-08-19T12:10:43;12.93;;;11.63;;
10811;SDS011;5458;51.496;7.334;2022-08-19T12:13:10;12.60;;;11.35;;
10811;SDS011;5458;51.496;7.334;2022-08-19T12:15:40;11.40;;;10.32;;
10811;SDS011;5458;51.496;7.334;2022-08-19T12:18:06;13.15;;;11.80;;
10811;SDS011;5458;51.496;7.334;2022-08-19T12:20:34;12.02;;;10.85;;
10811;SDS011;5458;51.496;7.334;2022-08-19T12:23:01;12.60;;;11.40;;
10811;SDS011;5458;51.496;7.334;2022-08-19T12:25:27;11.73;;;10.73;;
10811;SDS011;5458;51.496;7.334;2022-08-19T12:27:53;11.60;;;10.40;;
10811;SDS011;5458;51.496;7.334;2022-08-19T12:30:20;13.50;;;11.82;;
10811;SDS011;5458;51.496;7.334;2022-08-19T12:32:45;11.50;;;10.40;;
10811;SDS011;5458;51.496;7.334;2022-08-19T12:35:11;11.05;;;9.98;;
10811;SDS011;5458;51.496;7.334;2022-08-19T12:37:37;12.77;;;11.40;;
10811;SDS011;5458;51.496;7.334;2022-08-19T12:40:04;12.13;;;10.30;;
10811;SDS011;5458;51.496;7.334;2022-08-19T12:42:30;10.73;;;9.52;;
10811;SDS011;5458;51.496;7.334;2022-08-19T12:44:56;10.63;;;9.48;;
10811;SDS011;5458;51.496;7.334;2022-08-19T12:47:21;11.32;;;9.35;;
10811;SDS011;5458;51.496;7.334;2022-08-19T12:49:48;12.27;;;10.85;;
10811;SDS011;5458;51.496;7.334;2022-08-19T12:52:14;12.68;;;11.38;;
10811;SDS011;5458;51.496;7.334;2022-08-19T12:54:41;11.18;;;10.00;;
10811;SDS011;5458;51.496;7.334;2022-08-19T12:57:08;10.77;;;9.77;;
10811;SDS011;5458;51.496;7.334;2022-08-19T12:59:36;12.13;;;9.63;;
10811;SDS011;5458;51.496;7.334;2022-08-19T13:02:06;8.70;;;7.80;;
10811;SDS011;5458;51.496;7.334;2022-08-19T13:04:33;8.68;;;7.88;;
10811;SDS011;5458;51.496;7.334;2022-08-19T13:07:05;8.68;;;7.88;;
10811;SDS011;5458;51.496;7.334;2022-08-19T13:09:32;7.93;;;7.13;;
10811;SDS011;5458;51.496;7.334;2022-08-19T13:11:58;7.85;;;6.82;;
10811;SDS011;5458;51.496;7.334;2022-08-19T13:14:27;7.10;;;6.50;;
10811;SDS011;5458;51.496;7.334;2022-08-19T13:16:53;7.68;;;6.97;;
10811;SDS011;5458;51.496;7.334;2022-08-19T13:19:19;7.20;;;6.50;;
10811;SDS011;5458;51.496;7.334;2022-08-19T13:21:49;8.02;;;6.68;;
10811;SDS011;5458;51.496;7.334;2022-08-19T13:24:15;6.97;;;6.30;;
10811;SDS011;5458;51.496;7.334;2022-08-19T13:26:41;6.82;;;6.22;;
10811;SDS011;5458;51.496;7.334;2022-08-19T13:29:07;7.03;;;6.15;;
10811;SDS011;5458;51.496;7.334;2022-08-19T13:31:51;7.10;;;6.40;;
10811;SDS011;5458;51.496;7.334;2022-08-19T13:34:35;6.70;;;6.10;;
10811;SDS011;5458;51.496;7.334;2022-08-19T13:37:02;6.55;;;5.97;;
10811;SDS011;5458;51.496;7.334;2022-08-19T13:39:29;7.35;;;6.32;;
10811;SDS011;5458;51.496;7.334;2022-08-19T13:41:57;6.53;;;5.75;;
10811;SDS011;5458;51.496;7.334;2022-08-19T13:44:24;7.28;;;6.03;;
10811;SDS011;5458;51.496;7.334;2022-08-19T13:46:51;6.97;;;6.18;;
10811;SDS011;5458;51.496;7.334;2022-08-19T13:49:18;7.38;;;6.68;;
10811;SDS011;5458;51.496;7.334;2022-08-19T13:51:45;6.82;;;5.70;;
10811;SDS011;5458;51.496;7.334;2022-08-19T13:54:11;7.60;;;6.25;;
10811;SDS011;5458;51.496;7.334;2022-08-19T13:56:41;7.65;;;6.30;;
10811;SDS011;5458;51.496;7.334;2022-08-19T13:59:09;7.07;;;6.40;;
10811;SDS011;5458;51.496;7.334;2022-08-19T14:01:35;7.03;;;5.60;;
10811;SDS011;5458;51.496;7.334;2022-08-19T14:04:02;7.07;;;6.47;;
10811;SDS011;5458;51.496;7.334;2022-08-19T14:06:28;7.03;;;6.07;;
10811;SDS011;5458;51.496;7.334;2022-08-19T14:08:53;7.72;;;6.32;;
10811;SDS011;5458;51.496;7.334;2022-08-19T14:11:19;7.78;;;5.85;;
10811;SDS011;5458;51.496;7.334;2022-08-19T14:13:45;7.90;;;5.20;;
10811;SDS011;5458;51.496;7.334;2022-08-19T14:16:11;8.18;;;6.78;;
10811;SDS011;5458;51.496;7.334;2022-08-19T14:18:38;5.93;;;5.40;;
10811;SDS011;5458;51.496;7.334;2022-08-19T14:21:05;7.40;;;5.75;;
10811;SDS011;5458;51.496;7.334;2022-08-19T14:23:31;9.52;;;8.70;;
10811;SDS011;5458;51.496;7.334;2022-08-19T14:26:08;25.15;;;23.95;;
10811;SDS011;5458;51.496;7.334;2022-08-19T14:28:36;74.38;;;71.70;;
10811;SDS011;5458;51.496;7.334;2022-08-19T14:31:02;28.55;;;27.35;;
10811;SDS011;5458;51.496;7.334;2022-08-19T14:33:28;63.35;;;60.97;;
10811;SDS011;5458;51.496;7.334;2022-08-19T14:35:53;86.30;;;83.22;;
10811;SDS011;5458;51.496;7.334;2022-08-19T14:38:19;61.63;;;59.45;;
10811;SDS011;5458;51.496;7.334;2022-08-19T14:40:45;37.28;;;35.78;;
10811;SDS011;5458;51.496;7.334;2022-08-19T14:43:11;136.25;;;131.70;;
10811;SDS011;5458;51.496;7.334;2022-08-19T14:45:38;105.45;;;102.00;;
10811;SDS011;5458;51.496;7.334;2022-08-19T14:48:05;45.50;;;43.85;;
10811;SDS011;5458;51.496;7.334;2022-08-19T14:50:32;133.30;;;129.07;;
10811;SDS011;5458;51.496;7.334;2022-08-19T14:53:00;200.05;;;193.85;;
10811;SDS011;5458;51.496;7.334;2022-08-19T14:55:29;187.40;;;181.70;;
10811;SDS011;5458;51.496;7.334;2022-08-19T14:57:55;204.80;;;198.23;;
10811;SDS011;5458;51.496;7.334;2022-08-19T15:00:21;142.23;;;137.82;;